sensor_id;sensor_type;location;lat;lon;timestamp;temperature;humidity
14142;DHT22;7151;52.246;4.820;2023-08-08T00:00:10;20.40;84.80
14142;DHT22;7151;52.246;4.820;2023-08-08T00:02:36;20.40;84.90
14142;DHT22;7151;52.246;4.820;2023-08-08T00:05:02;20.40;85.00
14142;DHT22;7151;52.246;4.820;2023-08-08T00:07:28;20.40;85.00
14142;DHT22;7151;52.246;4.820;2023-08-08T00:09:56;20.40;85.10
14142;DHT22;7151;52.246;4.820;2023-08-08T00:12:22;20.40;85.20
14142;DHT22;7151;52.246;4.820;2023-08-08T00:14:47;20.40;86.00
14142;DHT22;7151;52.246;4.820;2023-08-08T00:17:13;20.40;85.40
14142;DHT22;7151;52.246;4.820;2023-08-08T00:19:38;20.40;85.40
14142;DHT22;7151;52.246;4.820;2023-08-08T00:22:04;20.40;85.40
14142;DHT22;7151;52.246;4.820;2023-08-08T00:24:30;20.40;85.50
14142;DHT22;7151;52.246;4.820;2023-08-08T00:26:55;20.40;85.60
14142;DHT22;7151;52.246;4.820;2023-08-08T00:29:21;20.40;85.60
14142;DHT22;7151;52.246;4.820;2023-08-08T00:31:46;20.40;85.60
14142;DHT22;7151;52.246;4.820;2023-08-08T00:34:12;20.40;85.60
14142;DHT22;7151;52.246;4.820;2023-08-08T00:36:37;20.40;85.70
14142;DHT22;7151;52.246;4.820;2023-08-08T00:39:03;20.40;85.80
14142;DHT22;7151;52.246;4.820;2023-08-08T00:41:29;20.40;85.90
14142;DHT22;7151;52.246;4.820;2023-08-08T00:43:54;20.40;85.90
14142;DHT22;7151;52.246;4.820;2023-08-08T00:46:21;20.40;86.00
14142;DHT22;7151;52.246;4.820;2023-08-08T00:48:47;20.40;86.00
14142;DHT22;7151;52.246;4.820;2023-08-08T00:51:13;20.40;86.00
14142;DHT22;7151;52.246;4.820;2023-08-08T00:53:39;20.40;85.90
14142;DHT22;7151;52.246;4.820;2023-08-08T00:56:05;20.30;85.80
14142;DHT22;7151;52.246;4.820;2023-08-08T00:58:31;20.40;85.90
14142;DHT22;7151;52.246;4.820;2023-08-08T01:00:56;20.30;85.90
14142;DHT22;7151;52.246;4.820;2023-08-08T01:03:23;20.30;85.80
14142;DHT22;7151;52.246;4.820;2023-08-08T01:05:53;20.30;85.80
14142;DHT22;7151;52.246;4.820;2023-08-08T01:08:27;20.30;85.80
14142;DHT22;7151;52.246;4.820;2023-08-08T01:10:56;20.30;85.80
14142;DHT22;7151;52.246;4.820;2023-08-08T01:13:23;20.30;85.90
14142;DHT22;7151;52.246;4.820;2023-08-08T01:15:50;20.30;85.90
14142;DHT22;7151;52.246;4.820;2023-08-08T01:18:18;20.30;85.90
14142;DHT22;7151;52.246;4.820;2023-08-08T01:20:44;20.30;86.00
14142;DHT22;7151;52.246;4.820;2023-08-08T01:25:57;20.30;85.90
14142;DHT22;7151;52.246;4.820;2023-08-08T01:28:23;20.30;85.80
14142;DHT22;7151;52.246;4.820;2023-08-08T01:30:50;20.20;85.50
14142;DHT22;7151;52.246;4.820;2023-08-08T01:33:15;20.20;85.50
14142;DHT22;7151;52.246;4.820;2023-08-08T01:35:45;20.20;85.40
14142;DHT22;7151;52.246;4.820;2023-08-08T01:38:17;20.20;85.30
14142;DHT22;7151;52.246;4.820;2023-08-08T01:40:45;20.20;85.20
14142;DHT22;7151;52.246;4.820;2023-08-08T01:43:12;20.20;85.10
14142;DHT22;7151;52.246;4.820;2023-08-08T01:45:39;20.20;85.00
14142;DHT22;7151;52.246;4.820;2023-08-08T01:48:09;20.20;84.90
14142;DHT22;7151;52.246;4.820;2023-08-08T01:50:35;20.20;84.80
14142;DHT22;7151;52.246;4.820;2023-08-08T01:53:01;20.10;84.60
14142;DHT22;7151;52.246;4.820;2023-08-08T01:55:26;20.10;84.60
14142;DHT22;7151;52.246;4.820;2023-08-08T01:57:52;20.10;84.60
14142;DHT22;7151;52.246;4.820;2023-08-08T02:00:17;20.10;84.50
14142;DHT22;7151;52.246;4.820;2023-08-08T02:02:43;20.10;84.40
14142;DHT22;7151;52.246;4.820;2023-08-08T02:05:08;20.10;84.50
14142;DHT22;7151;52.246;4.820;2023-08-08T02:07:34;20.00;84.40
14142;DHT22;7151;52.246;4.820;2023-08-08T02:10:00;20.00;84.50
14142;DHT22;7151;52.246;4.820;2023-08-08T02:12:25;20.00;84.40
14142;DHT22;7151;52.246;4.820;2023-08-08T02:14:51;19.90;84.40
14142;DHT22;7151;52.246;4.820;2023-08-08T02:17:16;19.90;84.60
14142;DHT22;7151;52.246;4.820;2023-08-08T02:19:42;19.90;84.70
14142;DHT22;7151;52.246;4.820;2023-08-08T02:22:08;19.90;84.70
14142;DHT22;7151;52.246;4.820;2023-08-08T02:24:34;19.90;84.70
14142;DHT22;7151;52.246;4.820;2023-08-08T02:27:00;19.90;84.70
14142;DHT22;7151;52.246;4.820;2023-08-08T02:29:25;19.90;84.70
14142;DHT22;7151;52.246;4.820;2023-08-08T02:31:51;19.90;84.50
14142;DHT22;7151;52.246;4.820;2023-08-08T02:34:16;19.90;84.40
14142;DHT22;7151;52.246;4.820;2023-08-08T02:36:42;19.90;84.40
14142;DHT22;7151;52.246;4.820;2023-08-08T02:39:07;19.80;84.30
14142;DHT22;7151;52.246;4.820;2023-08-08T02:41:33;19.90;84.20
14142;DHT22;7151;52.246;4.820;2023-08-08T02:43:59;19.90;84.10
14142;DHT22;7151;52.246;4.820;2023-08-08T02:46:24;19.90;84.10
14142;DHT22;7151;52.246;4.820;2023-08-08T02:48:50;19.90;84.00
14142;DHT22;7151;52.246;4.820;2023-08-08T02:51:15;19.90;84.00
14142;DHT22;7151;52.246;4.820;2023-08-08T02:53:41;19.90;83.90
14142;DHT22;7151;52.246;4.820;2023-08-08T02:56:06;19.90;83.90
14142;DHT22;7151;52.246;4.820;2023-08-08T02:58:32;19.80;83.80
14142;DHT22;7151;52.246;4.820;2023-08-08T03:00:57;19.80;83.70
14142;DHT22;7151;52.246;4.820;2023-08-08T03:03:23;19.80;83.60
14142;DHT22;7151;52.246;4.820;2023-08-08T03:05:49;19.80;83.50
14142;DHT22;7151;52.246;4.820;2023-08-08T03:08:15;19.80;83.30
14142;DHT22;7151;52.246;4.820;2023-08-08T03:10:40;19.80;83.20
14142;DHT22;7151;52.246;4.820;2023-08-08T03:13:06;19.80;83.10
14142;DHT22;7151;52.246;4.820;2023-08-08T03:15:32;19.80;82.90
14142;DHT22;7151;52.246;4.820;2023-08-08T03:17:58;19.80;82.90
14142;DHT22;7151;52.246;4.820;2023-08-08T03:20:23;19.70;83.40
14142;DHT22;7151;52.246;4.820;2023-08-08T03:22:49;19.80;82.70
14142;DHT22;7151;52.246;4.820;2023-08-08T03:25:15;19.70;82.60
14142;DHT22;7151;52.246;4.820;2023-08-08T03:27:41;19.80;82.60
14142;DHT22;7151;52.246;4.820;2023-08-08T03:30:07;19.80;82.50
14142;DHT22;7151;52.246;4.820;2023-08-08T03:32:33;19.70;82.30
14142;DHT22;7151;52.246;4.820;2023-08-08T03:34:58;19.70;82.30
14142;DHT22;7151;52.246;4.820;2023-08-08T03:37:24;19.70;82.30
14142;DHT22;7151;52.246;4.820;2023-08-08T03:39:49;19.70;82.30
14142;DHT22;7151;52.246;4.820;2023-08-08T03:42:15;19.70;82.30
14142;DHT22;7151;52.246;4.820;2023-08-08T03:44:40;19.60;82.10
14142;DHT22;7151;52.246;4.820;2023-08-08T03:47:06;19.60;82.10
14142;DHT22;7151;52.246;4.820;2023-08-08T03:49:32;19.60;82.10
14142;DHT22;7151;52.246;4.820;2023-08-08T03:51:58;19.60;82.10
14142;DHT22;7151;52.246;4.820;2023-08-08T03:54:23;19.60;82.00
14142;DHT22;7151;52.246;4.820;2023-08-08T03:56:49;19.50;81.90
14142;DHT22;7151;52.246;4.820;2023-08-08T03:59:15;19.50;81.90
14142;DHT22;7151;52.246;4.820;2023-08-08T04:01:40;19.50;81.80
14142;DHT22;7151;52.246;4.820;2023-08-08T04:04:06;19.50;81.90
14142;DHT22;7151;52.246;4.820;2023-08-08T04:06:31;19.50;82.00
14142;DHT22;7151;52.246;4.820;2023-08-08T04:08:57;19.40;82.00
14142;DHT22;7151;52.246;4.820;2023-08-08T04:11:22;19.40;82.10
14142;DHT22;7151;52.246;4.820;2023-08-08T04:13:48;19.40;82.10
14142;DHT22;7151;52.246;4.820;2023-08-08T04:16:14;19.40;82.20
14142;DHT22;7151;52.246;4.820;2023-08-08T04:18:40;19.30;82.20
14142;DHT22;7151;52.246;4.820;2023-08-08T04:21:05;19.30;82.20
14142;DHT22;7151;52.246;4.820;2023-08-08T04:23:31;19.30;82.40
14142;DHT22;7151;52.246;4.820;2023-08-08T04:25:56;19.30;82.50
14142;DHT22;7151;52.246;4.820;2023-08-08T04:28:22;19.30;82.50
14142;DHT22;7151;52.246;4.820;2023-08-08T04:30:47;19.30;82.50
14142;DHT22;7151;52.246;4.820;2023-08-08T04:33:13;19.30;82.40
14142;DHT22;7151;52.246;4.820;2023-08-08T04:35:39;19.30;82.40
14142;DHT22;7151;52.246;4.820;2023-08-08T04:38:04;19.30;82.30
14142;DHT22;7151;52.246;4.820;2023-08-08T04:40:30;19.20;82.20
14142;DHT22;7151;52.246;4.820;2023-08-08T04:42:56;19.30;82.10
14142;DHT22;7151;52.246;4.820;2023-08-08T04:45:21;19.30;82.80
14142;DHT22;7151;52.246;4.820;2023-08-08T04:47:47;19.30;81.90
14142;DHT22;7151;52.246;4.820;2023-08-08T04:50:13;19.30;81.80
14142;DHT22;7151;52.246;4.820;2023-08-08T04:52:39;19.30;81.60
14142;DHT22;7151;52.246;4.820;2023-08-08T04:55:05;19.30;81.30
14142;DHT22;7151;52.246;4.820;2023-08-08T04:57:31;19.30;81.20
14142;DHT22;7151;52.246;4.820;2023-08-08T04:59:56;19.30;81.10
14142;DHT22;7151;52.246;4.820;2023-08-08T05:02:22;19.30;81.00
14142;DHT22;7151;52.246;4.820;2023-08-08T05:04:48;19.30;80.90
14142;DHT22;7151;52.246;4.820;2023-08-08T05:07:13;19.30;80.90
14142;DHT22;7151;52.246;4.820;2023-08-08T05:09:39;19.30;80.90
14142;DHT22;7151;52.246;4.820;2023-08-08T05:12:06;19.30;80.80
14142;DHT22;7151;52.246;4.820;2023-08-08T05:14:31;19.30;80.70
14142;DHT22;7151;52.246;4.820;2023-08-08T05:16:57;19.30;80.70
14142;DHT22;7151;52.246;4.820;2023-08-08T05:19:23;19.30;80.70
14142;DHT22;7151;52.246;4.820;2023-08-08T05:21:49;19.30;80.70
14142;DHT22;7151;52.246;4.820;2023-08-08T05:24:15;19.30;80.60
14142;DHT22;7151;52.246;4.820;2023-08-08T05:26:40;19.30;80.60
14142;DHT22;7151;52.246;4.820;2023-08-08T05:29:06;19.30;80.60
14142;DHT22;7151;52.246;4.820;2023-08-08T05:31:31;19.30;80.60
14142;DHT22;7151;52.246;4.820;2023-08-08T05:33:57;19.30;80.60
14142;DHT22;7151;52.246;4.820;2023-08-08T05:36:23;19.30;80.60
14142;DHT22;7151;52.246;4.820;2023-08-08T05:38:49;19.30;80.60
14142;DHT22;7151;52.246;4.820;2023-08-08T05:41:14;19.30;80.40
14142;DHT22;7151;52.246;4.820;2023-08-08T05:43:40;19.30;80.40
14142;DHT22;7151;52.246;4.820;2023-08-08T05:46:05;19.30;80.30
14142;DHT22;7151;52.246;4.820;2023-08-08T05:48:31;19.30;80.10
14142;DHT22;7151;52.246;4.820;2023-08-08T05:50:56;19.40;80.20
14142;DHT22;7151;52.246;4.820;2023-08-08T05:53:24;19.40;80.40
14142;DHT22;7151;52.246;4.820;2023-08-08T05:55:49;19.40;80.40
14142;DHT22;7151;52.246;4.820;2023-08-08T05:58:15;19.40;80.30
14142;DHT22;7151;52.246;4.820;2023-08-08T06:00:40;19.40;80.40
14142;DHT22;7151;52.246;4.820;2023-08-08T06:03:06;19.30;80.40
14142;DHT22;7151;52.246;4.820;2023-08-08T06:05:32;19.40;80.60
14142;DHT22;7151;52.246;4.820;2023-08-08T06:07:57;19.40;80.60
14142;DHT22;7151;52.246;4.820;2023-08-08T06:10:23;19.50;80.60
14142;DHT22;7151;52.246;4.820;2023-08-08T06:12:50;19.50;80.70
14142;DHT22;7151;52.246;4.820;2023-08-08T06:15:16;19.50;80.70
14142;DHT22;7151;52.246;4.820;2023-08-08T06:17:41;19.50;80.70
14142;DHT22;7151;52.246;4.820;2023-08-08T06:20:07;19.50;80.60
14142;DHT22;7151;52.246;4.820;2023-08-08T06:22:34;19.50;80.50
14142;DHT22;7151;52.246;4.820;2023-08-08T06:25:00;19.50;80.40
14142;DHT22;7151;52.246;4.820;2023-08-08T06:27:25;19.60;80.40
14142;DHT22;7151;52.246;4.820;2023-08-08T06:29:51;19.60;80.30
14142;DHT22;7151;52.246;4.820;2023-08-08T06:32:17;19.60;80.20
14142;DHT22;7151;52.246;4.820;2023-08-08T06:34:42;19.60;80.10
14142;DHT22;7151;52.246;4.820;2023-08-08T06:37:08;19.60;80.20
14142;DHT22;7151;52.246;4.820;2023-08-08T06:39:34;19.60;80.30
14142;DHT22;7151;52.246;4.820;2023-08-08T06:42:00;19.70;80.20
14142;DHT22;7151;52.246;4.820;2023-08-08T06:44:25;19.70;80.20
14142;DHT22;7151;52.246;4.820;2023-08-08T06:46:51;19.70;81.10
14142;DHT22;7151;52.246;4.820;2023-08-08T06:49:17;19.70;80.20
14142;DHT22;7151;52.246;4.820;2023-08-08T06:51:42;19.80;80.30
14142;DHT22;7151;52.246;4.820;2023-08-08T06:54:08;19.70;80.20
14142;DHT22;7151;52.246;4.820;2023-08-08T06:56:33;19.80;80.90
14142;DHT22;7151;52.246;4.820;2023-08-08T06:58:59;19.80;80.20
14142;DHT22;7151;52.246;4.820;2023-08-08T07:01:25;19.80;80.10
14142;DHT22;7151;52.246;4.820;2023-08-08T07:03:50;19.80;80.00
14142;DHT22;7151;52.246;4.820;2023-08-08T07:06:19;19.80;80.00
14142;DHT22;7151;52.246;4.820;2023-08-08T07:08:44;19.80;80.00
14142;DHT22;7151;52.246;4.820;2023-08-08T07:11:10;19.80;80.20
14142;DHT22;7151;52.246;4.820;2023-08-08T07:13:36;19.80;80.20
14142;DHT22;7151;52.246;4.820;2023-08-08T07:16:02;19.90;80.30
14142;DHT22;7151;52.246;4.820;2023-08-08T07:18:27;19.90;80.90
14142;DHT22;7151;52.246;4.820;2023-08-08T07:20:53;19.90;80.20
14142;DHT22;7151;52.246;4.820;2023-08-08T07:23:18;19.90;80.10
14142;DHT22;7151;52.246;4.820;2023-08-08T07:25:45;20.00;80.20
14142;DHT22;7151;52.246;4.820;2023-08-08T07:28:11;20.00;80.20
14142;DHT22;7151;52.246;4.820;2023-08-08T07:30:36;20.00;80.10
14142;DHT22;7151;52.246;4.820;2023-08-08T07:33:02;20.00;80.00
14142;DHT22;7151;52.246;4.820;2023-08-08T07:35:27;20.00;79.90
14142;DHT22;7151;52.246;4.820;2023-08-08T07:37:53;20.10;80.00
14142;DHT22;7151;52.246;4.820;2023-08-08T07:40:20;20.10;79.90
14142;DHT22;7151;52.246;4.820;2023-08-08T07:42:47;20.10;79.70
14142;DHT22;7151;52.246;4.820;2023-08-08T07:45:13;20.10;79.60
14142;DHT22;7151;52.246;4.820;2023-08-08T07:47:39;20.10;79.60
14142;DHT22;7151;52.246;4.820;2023-08-08T07:50:05;20.20;79.70
14142;DHT22;7151;52.246;4.820;2023-08-08T07:52:34;20.20;79.60
14142;DHT22;7151;52.246;4.820;2023-08-08T07:54:59;20.20;79.50
14142;DHT22;7151;52.246;4.820;2023-08-08T07:57:26;20.30;79.40
14142;DHT22;7151;52.246;4.820;2023-08-08T07:59:52;20.30;79.20
14142;DHT22;7151;52.246;4.820;2023-08-08T08:02:17;20.30;78.90
14142;DHT22;7151;52.246;4.820;2023-08-08T08:04:43;20.30;78.40
14142;DHT22;7151;52.246;4.820;2023-08-08T08:07:08;20.30;78.10
14142;DHT22;7151;52.246;4.820;2023-08-08T08:09:34;20.30;78.00
14142;DHT22;7151;52.246;4.820;2023-08-08T08:12:00;20.40;78.10
14142;DHT22;7151;52.246;4.820;2023-08-08T08:14:25;20.40;78.20
14142;DHT22;7151;52.246;4.820;2023-08-08T08:16:51;20.40;78.10
14142;DHT22;7151;52.246;4.820;2023-08-08T08:19:16;20.50;78.00
14142;DHT22;7151;52.246;4.820;2023-08-08T08:21:42;20.50;77.70
14142;DHT22;7151;52.246;4.820;2023-08-08T08:24:08;20.50;77.70
14142;DHT22;7151;52.246;4.820;2023-08-08T08:26:34;20.50;77.80
14142;DHT22;7151;52.246;4.820;2023-08-08T08:28:59;20.50;77.80
14142;DHT22;7151;52.246;4.820;2023-08-08T08:31:25;20.60;77.70
14142;DHT22;7151;52.246;4.820;2023-08-08T08:33:50;20.50;77.70
14142;DHT22;7151;52.246;4.820;2023-08-08T08:36:16;20.60;77.70
14142;DHT22;7151;52.246;4.820;2023-08-08T08:38:42;20.60;77.70
14142;DHT22;7151;52.246;4.820;2023-08-08T08:41:09;20.60;77.40
14142;DHT22;7151;52.246;4.820;2023-08-08T08:43:38;20.60;77.40
14142;DHT22;7151;52.246;4.820;2023-08-08T08:46:04;20.70;77.40
14142;DHT22;7151;52.246;4.820;2023-08-08T08:48:30;20.70;77.40
14142;DHT22;7151;52.246;4.820;2023-08-08T08:50:56;20.70;77.20
14142;DHT22;7151;52.246;4.820;2023-08-08T08:53:23;20.70;77.40
14142;DHT22;7151;52.246;4.820;2023-08-08T08:55:50;20.70;77.40
14142;DHT22;7151;52.246;4.820;2023-08-08T08:58:16;20.80;77.30
14142;DHT22;7151;52.246;4.820;2023-08-08T09:00:44;20.80;77.10
14142;DHT22;7151;52.246;4.820;2023-08-08T09:03:11;20.80;76.90
14142;DHT22;7151;52.246;4.820;2023-08-08T09:05:37;20.80;76.90
14142;DHT22;7151;52.246;4.820;2023-08-08T09:08:03;20.80;76.80
14142;DHT22;7151;52.246;4.820;2023-08-08T09:10:30;20.80;76.70
14142;DHT22;7151;52.246;4.820;2023-08-08T09:12:57;20.90;76.70
14142;DHT22;7151;52.246;4.820;2023-08-08T09:15:23;20.90;76.80
14142;DHT22;7151;52.246;4.820;2023-08-08T09:17:48;20.90;76.50
14142;DHT22;7151;52.246;4.820;2023-08-08T09:20:14;20.90;76.50
14142;DHT22;7151;52.246;4.820;2023-08-08T09:22:39;20.90;76.60
14142;DHT22;7151;52.246;4.820;2023-08-08T09:25:06;20.90;76.50
14142;DHT22;7151;52.246;4.820;2023-08-08T09:27:32;20.90;76.30
14142;DHT22;7151;52.246;4.820;2023-08-08T09:29:57;20.90;76.20
14142;DHT22;7151;52.246;4.820;2023-08-08T09:32:28;20.90;76.20
14142;DHT22;7151;52.246;4.820;2023-08-08T09:34:56;20.90;76.20
14142;DHT22;7151;52.246;4.820;2023-08-08T09:37:22;21.00;76.20
14142;DHT22;7151;52.246;4.820;2023-08-08T09:39:56;21.00;76.20
14142;DHT22;7151;52.246;4.820;2023-08-08T09:42:21;21.00;76.30
14142;DHT22;7151;52.246;4.820;2023-08-08T09:44:47;21.00;76.30
14142;DHT22;7151;52.246;4.820;2023-08-08T09:47:13;21.10;76.20
14142;DHT22;7151;52.246;4.820;2023-08-08T09:49:40;21.10;75.90
14142;DHT22;7151;52.246;4.820;2023-08-08T09:52:06;21.10;76.50
14142;DHT22;7151;52.246;4.820;2023-08-08T09:54:33;21.10;75.80
14142;DHT22;7151;52.246;4.820;2023-08-08T09:56:59;21.10;75.70
14142;DHT22;7151;52.246;4.820;2023-08-08T09:59:25;21.20;75.60
14142;DHT22;7151;52.246;4.820;2023-08-08T10:01:52;21.20;75.20
14142;DHT22;7151;52.246;4.820;2023-08-08T10:04:18;21.30;75.20
14142;DHT22;7151;52.246;4.820;2023-08-08T10:06:44;21.30;75.10
14142;DHT22;7151;52.246;4.820;2023-08-08T10:09:10;21.30;75.00
14142;DHT22;7151;52.246;4.820;2023-08-08T10:11:36;21.30;74.80
14142;DHT22;7151;52.246;4.820;2023-08-08T10:14:02;21.40;74.80
14142;DHT22;7151;52.246;4.820;2023-08-08T10:16:32;21.40;74.60
14142;DHT22;7151;52.246;4.820;2023-08-08T10:19:00;21.40;75.20
14142;DHT22;7151;52.246;4.820;2023-08-08T10:21:26;21.40;74.20
14142;DHT22;7151;52.246;4.820;2023-08-08T10:24:04;21.40;74.10
14142;DHT22;7151;52.246;4.820;2023-08-08T10:26:30;21.40;74.30
14142;DHT22;7151;52.246;4.820;2023-08-08T10:28:57;21.40;74.60
14142;DHT22;7151;52.246;4.820;2023-08-08T10:31:23;21.40;74.70
14142;DHT22;7151;52.246;4.820;2023-08-08T10:33:48;21.50;74.80
14142;DHT22;7151;52.246;4.820;2023-08-08T10:36:15;21.50;74.90
14142;DHT22;7151;52.246;4.820;2023-08-08T10:38:48;21.50;74.60
14142;DHT22;7151;52.246;4.820;2023-08-08T10:41:17;21.60;74.40
14142;DHT22;7151;52.246;4.820;2023-08-08T10:43:54;21.60;74.50
14142;DHT22;7151;52.246;4.820;2023-08-08T10:46:32;21.60;74.60
14142;DHT22;7151;52.246;4.820;2023-08-08T10:49:05;21.70;74.30
14142;DHT22;7151;52.246;4.820;2023-08-08T10:54:06;21.70;74.10
14142;DHT22;7151;52.246;4.820;2023-08-08T10:56:35;21.70;74.00
14142;DHT22;7151;52.246;4.820;2023-08-08T10:59:13;21.80;73.70
14142;DHT22;7151;52.246;4.820;2023-08-08T11:01:40;21.80;73.90
14142;DHT22;7151;52.246;4.820;2023-08-08T11:04:05;21.80;74.10
14142;DHT22;7151;52.246;4.820;2023-08-08T11:06:32;21.80;74.40
14142;DHT22;7151;52.246;4.820;2023-08-08T11:08:58;21.90;74.60
14142;DHT22;7151;52.246;4.820;2023-08-08T11:11:25;21.90;75.20
14142;DHT22;7151;52.246;4.820;2023-08-08T11:13:52;21.90;74.40
14142;DHT22;7151;52.246;4.820;2023-08-08T11:16:18;22.00;74.30
14142;DHT22;7151;52.246;4.820;2023-08-08T11:18:45;22.00;74.30
14142;DHT22;7151;52.246;4.820;2023-08-08T11:21:11;22.00;74.10
14142;DHT22;7151;52.246;4.820;2023-08-08T11:23:37;22.00;73.90
14142;DHT22;7151;52.246;4.820;2023-08-08T11:26:04;22.10;73.70
14142;DHT22;7151;52.246;4.820;2023-08-08T11:28:29;22.10;73.40
14142;DHT22;7151;52.246;4.820;2023-08-08T11:30:55;22.10;73.40
14142;DHT22;7151;52.246;4.820;2023-08-08T11:33:21;22.10;73.20
14142;DHT22;7151;52.246;4.820;2023-08-08T11:35:47;22.10;73.00
14142;DHT22;7151;52.246;4.820;2023-08-08T11:38:15;22.10;72.90
14142;DHT22;7151;52.246;4.820;2023-08-08T11:40:41;22.20;73.00
14142;DHT22;7151;52.246;4.820;2023-08-08T11:43:07;22.10;73.00
14142;DHT22;7151;52.246;4.820;2023-08-08T11:45:34;22.10;72.70
14142;DHT22;7151;52.246;4.820;2023-08-08T11:47:59;22.10;72.50
14142;DHT22;7151;52.246;4.820;2023-08-08T11:50:26;22.10;72.40
14142;DHT22;7151;52.246;4.820;2023-08-08T11:52:54;22.10;72.40
14142;DHT22;7151;52.246;4.820;2023-08-08T11:55:20;22.10;72.20
14142;DHT22;7151;52.246;4.820;2023-08-08T11:57:49;22.20;72.50
14142;DHT22;7151;52.246;4.820;2023-08-08T12:00:15;22.20;72.50
14142;DHT22;7151;52.246;4.820;2023-08-08T12:02:44;22.10;72.40
14142;DHT22;7151;52.246;4.820;2023-08-08T12:05:13;22.20;72.50
14142;DHT22;7151;52.246;4.820;2023-08-08T12:07:39;22.20;72.30
14142;DHT22;7151;52.246;4.820;2023-08-08T12:10:28;22.20;72.20
14142;DHT22;7151;52.246;4.820;2023-08-08T12:12:56;22.20;71.90
14142;DHT22;7151;52.246;4.820;2023-08-08T12:15:23;22.20;72.10
14142;DHT22;7151;52.246;4.820;2023-08-08T12:17:49;22.30;72.20
14142;DHT22;7151;52.246;4.820;2023-08-08T12:20:15;22.30;72.20
14142;DHT22;7151;52.246;4.820;2023-08-08T12:22:40;22.30;72.40
14142;DHT22;7151;52.246;4.820;2023-08-08T12:25:06;22.30;72.30
14142;DHT22;7151;52.246;4.820;2023-08-08T12:27:33;22.30;72.00
14142;DHT22;7151;52.246;4.820;2023-08-08T12:29:59;22.30;71.80
14142;DHT22;7151;52.246;4.820;2023-08-08T12:32:26;22.40;72.00
14142;DHT22;7151;52.246;4.820;2023-08-08T12:34:54;22.40;71.80
14142;DHT22;7151;52.246;4.820;2023-08-08T12:37:20;22.40;71.90
14142;DHT22;7151;52.246;4.820;2023-08-08T12:39:45;22.40;71.70
14142;DHT22;7151;52.246;4.820;2023-08-08T12:42:11;22.40;71.70
14142;DHT22;7151;52.246;4.820;2023-08-08T12:44:36;22.40;71.70
14142;DHT22;7151;52.246;4.820;2023-08-08T12:47:02;22.40;71.80
14142;DHT22;7151;52.246;4.820;2023-08-08T12:49:28;22.50;71.90
14142;DHT22;7151;52.246;4.820;2023-08-08T12:51:53;22.50;71.90
14142;DHT22;7151;52.246;4.820;2023-08-08T12:54:21;22.50;71.80
14142;DHT22;7151;52.246;4.820;2023-08-08T12:56:47;22.50;71.70
14142;DHT22;7151;52.246;4.820;2023-08-08T12:59:12;22.50;71.70
14142;DHT22;7151;52.246;4.820;2023-08-08T13:01:38;22.50;71.80
14142;DHT22;7151;52.246;4.820;2023-08-08T13:04:03;22.60;71.70
14142;DHT22;7151;52.246;4.820;2023-08-08T13:06:29;22.60;71.70
14142;DHT22;7151;52.246;4.820;2023-08-08T13:08:55;22.60;71.70
14142;DHT22;7151;52.246;4.820;2023-08-08T13:11:21;22.60;71.70
14142;DHT22;7151;52.246;4.820;2023-08-08T13:13:47;22.70;71.50
14142;DHT22;7151;52.246;4.820;2023-08-08T13:16:12;22.70;71.20
14142;DHT22;7151;52.246;4.820;2023-08-08T13:18:38;22.70;71.20
14142;DHT22;7151;52.246;4.820;2023-08-08T13:21:04;22.70;71.10
14142;DHT22;7151;52.246;4.820;2023-08-08T13:23:29;22.70;71.10
14142;DHT22;7151;52.246;4.820;2023-08-08T13:25:55;22.70;71.20
14142;DHT22;7151;52.246;4.820;2023-08-08T13:28:21;22.70;71.10
14142;DHT22;7151;52.246;4.820;2023-08-08T13:30:47;22.70;70.80
14142;DHT22;7151;52.246;4.820;2023-08-08T13:33:12;22.70;70.60
14142;DHT22;7151;52.246;4.820;2023-08-08T13:35:39;22.70;70.60
14142;DHT22;7151;52.246;4.820;2023-08-08T13:38:04;22.70;70.60
14142;DHT22;7151;52.246;4.820;2023-08-08T13:40:30;22.70;70.50
14142;DHT22;7151;52.246;4.820;2023-08-08T13:42:55;22.70;70.50
14142;DHT22;7151;52.246;4.820;2023-08-08T13:45:21;22.70;70.50
14142;DHT22;7151;52.246;4.820;2023-08-08T13:47:49;22.70;70.30
14142;DHT22;7151;52.246;4.820;2023-08-08T13:50:14;22.70;70.20
14142;DHT22;7151;52.246;4.820;2023-08-08T13:52:41;22.60;70.10
14142;DHT22;7151;52.246;4.820;2023-08-08T13:55:07;22.60;70.20
14142;DHT22;7151;52.246;4.820;2023-08-08T13:57:34;22.60;70.30
14142;DHT22;7151;52.246;4.820;2023-08-08T14:00:00;22.60;70.50
14142;DHT22;7151;52.246;4.820;2023-08-08T14:02:25;22.60;70.60
14142;DHT22;7151;52.246;4.820;2023-08-08T14:04:51;22.60;70.60
14142;DHT22;7151;52.246;4.820;2023-08-08T14:07:18;22.60;70.70
14142;DHT22;7151;52.246;4.820;2023-08-08T14:09:44;22.60;70.50
14142;DHT22;7151;52.246;4.820;2023-08-08T14:12:09;22.60;70.40
14142;DHT22;7151;52.246;4.820;2023-08-08T14:14:35;22.70;70.30
14142;DHT22;7151;52.246;4.820;2023-08-08T14:17:01;22.60;70.20
14142;DHT22;7151;52.246;4.820;2023-08-08T14:19:26;22.60;70.30
14142;DHT22;7151;52.246;4.820;2023-08-08T14:21:52;22.60;70.60
14142;DHT22;7151;52.246;4.820;2023-08-08T14:24:17;22.70;70.70
14142;DHT22;7151;52.246;4.820;2023-08-08T14:26:44;22.70;70.60
14142;DHT22;7151;52.246;4.820;2023-08-08T14:29:10;22.80;70.70
14142;DHT22;7151;52.246;4.820;2023-08-08T14:31:35;22.80;70.60
14142;DHT22;7151;52.246;4.820;2023-08-08T14:34:01;22.90;70.70
14142;DHT22;7151;52.246;4.820;2023-08-08T14:36:27;23.00;70.70
14142;DHT22;7151;52.246;4.820;2023-08-08T14:38:52;23.10;70.60
14142;DHT22;7151;52.246;4.820;2023-08-08T14:41:18;23.20;70.70
14142;DHT22;7151;52.246;4.820;2023-08-08T14:43:44;23.30;70.60
14142;DHT22;7151;52.246;4.820;2023-08-08T14:46:09;23.40;70.10
14142;DHT22;7151;52.246;4.820;2023-08-08T14:48:35;23.50;69.50
14142;DHT22;7151;52.246;4.820;2023-08-08T14:51:01;23.50;69.00
14142;DHT22;7151;52.246;4.820;2023-08-08T14:53:27;23.60;68.20
14142;DHT22;7151;52.246;4.820;2023-08-08T14:55:53;23.70;68.00
14142;DHT22;7151;52.246;4.820;2023-08-08T14:58:18;23.70;67.90
14142;DHT22;7151;52.246;4.820;2023-08-08T15:00:44;23.70;67.80
14142;DHT22;7151;52.246;4.820;2023-08-08T15:03:09;23.80;67.90
14142;DHT22;7151;52.246;4.820;2023-08-08T15:05:35;23.80;67.80
14142;DHT22;7151;52.246;4.820;2023-08-08T15:08:01;23.90;67.50
14142;DHT22;7151;52.246;4.820;2023-08-08T15:10:27;23.90;67.30
14142;DHT22;7151;52.246;4.820;2023-08-08T15:12:53;24.00;67.30
14142;DHT22;7151;52.246;4.820;2023-08-08T15:15:18;24.00;67.30
14142;DHT22;7151;52.246;4.820;2023-08-08T15:17:46;24.00;67.00
14142;DHT22;7151;52.246;4.820;2023-08-08T15:20:11;24.00;66.50
14142;DHT22;7151;52.246;4.820;2023-08-08T15:22:37;24.00;66.10
14142;DHT22;7151;52.246;4.820;2023-08-08T15:25:03;24.00;65.90
14142;DHT22;7151;52.246;4.820;2023-08-08T15:27:29;23.90;65.60
14142;DHT22;7151;52.246;4.820;2023-08-08T15:29:55;23.90;65.60
14142;DHT22;7151;52.246;4.820;2023-08-08T15:32:20;23.90;65.90
14142;DHT22;7151;52.246;4.820;2023-08-08T15:34:46;23.90;65.90
14142;DHT22;7151;52.246;4.820;2023-08-08T15:37:11;23.80;65.80
14142;DHT22;7151;52.246;4.820;2023-08-08T15:39:37;23.80;65.50
14142;DHT22;7151;52.246;4.820;2023-08-08T15:42:03;23.80;65.30